createdAt,value
2022-11-28T00:00:39.822Z,100702.63
2022-11-28T00:04:56.150Z,100695.53
2022-11-28T00:09:14.201Z,100689.00
2022-11-28T00:13:30.697Z,100695.13
2022-11-28T00:17:46.953Z,100683.53
2022-11-28T00:22:03.408Z,100687.63
2022-11-28T00:26:25.820Z,100690.41
2022-11-28T00:30:42.070Z,100686.34
2022-11-28T00:34:58.218Z,100686.62
2022-11-28T00:39:15.844Z,100690.09
2022-11-28T00:43:32.189Z,100688.28
2022-11-28T00:47:49.505Z,100695.81
2022-11-28T00:52:05.770Z,100684.69
2022-11-28T00:56:28.200Z,100694.94
2022-11-28T01:00:44.512Z,100698.31
2022-11-28T01:05:01.251Z,100709.75
2022-11-28T01:09:22.492Z,100695.75
2022-11-28T01:13:38.898Z,100688.00
2022-11-28T01:17:55.131Z,100683.78
2022-11-28T01:22:11.383Z,100684.16
2022-11-28T01:26:29.188Z,100687.84
2022-11-28T01:30:45.379Z,100687.69
2022-11-28T01:35:01.680Z,100676.25
2022-11-28T01:39:17.893Z,100665.47
2022-11-28T01:43:34.400Z,100652.59
2022-11-28T01:47:52.254Z,100655.28
2022-11-28T01:52:15.575Z,100645.06
2022-11-28T01:56:38.677Z,100643.25
2022-11-28T02:00:55.443Z,100628.06
2022-11-28T02:05:11.881Z,100632.44
2022-11-28T02:09:28.091Z,100633.03
2022-11-28T02:14:06.008Z,100627.94
2022-11-28T02:18:41.638Z,100627.59
2022-11-28T02:23:21.638Z,100623.69
2022-11-28T02:28:03.970Z,100620.63
2022-11-28T02:32:51.172Z,100623.31
2022-11-28T02:37:17.883Z,100606.63
2022-11-28T02:42:03.501Z,100601.78
2022-11-28T02:46:31.664Z,100599.69
2022-11-28T02:51:06.188Z,100600.66
2022-11-28T02:55:23.238Z,100598.56
2022-11-28T02:59:39.462Z,100583.94
2022-11-28T03:04:07.511Z,100589.59
2022-11-28T03:08:40.263Z,100591.78
2022-11-28T03:12:59.613Z,100582.53
2022-11-28T03:17:18.553Z,100576.22
2022-11-28T03:22:03.703Z,100576.34
2022-11-28T03:26:44.841Z,100557.06
2022-11-28T03:31:22.922Z,100564.53
2022-11-28T03:35:42.938Z,100540.44
2022-11-28T03:40:03.291Z,100528.87
2022-11-28T03:44:32.176Z,100531.38
2022-11-28T03:48:52.591Z,100530.09
2022-11-28T03:53:13.931Z,100524.03
2022-11-28T03:57:40.315Z,100518.03
2022-11-28T04:02:29.448Z,100514.47
2022-11-28T04:06:56.957Z,100516.59
2022-11-28T04:11:15.245Z,100515.28
2022-11-28T04:15:35.606Z,100519.44
2022-11-28T04:19:55.323Z,100509.03
2022-11-28T04:24:21.228Z,100509.97
2022-11-28T04:28:38.392Z,100508.41
2022-11-28T04:32:59.789Z,100507.97
2022-11-28T04:37:17.035Z,100499.50
2022-11-28T04:41:53.180Z,100491.31
2022-11-28T04:46:16.244Z,100486.03
2022-11-28T04:50:56.572Z,100482.97
2022-11-28T04:55:20.788Z,100500.22
2022-11-28T04:59:37.740Z,100495.91
2022-11-28T05:03:54.478Z,100489.16
2022-11-28T05:08:11.073Z,100499.47
2022-11-28T05:12:27.251Z,100499.25
2022-11-28T05:16:43.467Z,100510.59
2022-11-28T05:21:00.263Z,100516.16
2022-11-28T05:25:16.599Z,100526.31
2022-11-28T05:29:32.853Z,100542.97
2022-11-28T05:33:49.118Z,100529.69
2022-11-28T05:38:09.332Z,100529.69
2022-11-28T05:42:30.516Z,100545.53
2022-11-28T05:46:46.739Z,100545.34
2022-11-28T05:51:05.384Z,100540.09
2022-11-28T05:55:21.587Z,100527.22
2022-11-28T05:59:38.029Z,100517.66
2022-11-28T06:04:00.113Z,100522.84
2022-11-28T06:08:16.900Z,100517.34
2022-11-28T06:12:33.608Z,100534.72
2022-11-28T06:16:50.015Z,100526.91
2022-11-28T06:21:07.696Z,100533.22
2022-11-28T06:25:23.851Z,100529.59
2022-11-28T06:29:40.163Z,100529.06
2022-11-28T06:33:57.240Z,100517.81
2022-11-28T06:38:14.487Z,100521.41
2022-11-28T06:42:30.909Z,100523.81
2022-11-28T06:46:47.149Z,100520.81
2022-11-28T06:51:05.497Z,100523.22
2022-11-28T06:55:21.740Z,100517.78
2022-11-28T06:59:37.961Z,100528.63
2022-11-28T07:03:57.302Z,100527.31
2022-11-28T07:08:13.617Z,100522.78
2022-11-28T07:12:29.821Z,100521.75
2022-11-28T07:16:46.195Z,100526.13
2022-11-28T07:21:02.548Z,100533.97
2022-11-28T07:25:18.829Z,100530.69
2022-11-28T07:29:37.979Z,100525.69
2022-11-28T07:33:54.212Z,100533.88
2022-11-28T07:38:10.303Z,100532.72
2022-11-28T07:42:26.481Z,100526.06
2022-11-28T07:46:42.777Z,100520.38
2022-11-28T07:50:59.139Z,100519.81
2022-11-28T07:55:15.389Z,100520.31
2022-11-28T07:59:31.548Z,100511.03
2022-11-28T08:03:48.573Z,100507.41
2022-11-28T08:08:04.920Z,100504.78
2022-11-28T08:12:21.121Z,100504.78
2022-11-28T08:16:37.365Z,100508.09
2022-11-28T08:20:53.734Z,100506.75
2022-11-28T08:25:10.234Z,100508.53
2022-11-28T08:29:26.489Z,100508.34
2022-11-28T08:33:43.632Z,100502.91
2022-11-28T08:38:01.998Z,100514.00
2022-11-28T08:42:18.491Z,100520.12
2022-11-28T08:46:34.992Z,100515.13
2022-11-28T08:50:52.926Z,100526.84
2022-11-28T08:55:09.596Z,100524.56
2022-11-28T08:59:26.141Z,100521.66
2022-11-28T09:03:42.307Z,100520.16
2022-11-28T09:07:58.596Z,100524.69
2022-11-28T09:12:14.832Z,100525.13
2022-11-28T09:16:31.129Z,100512.72
2022-11-28T09:20:47.701Z,100511.66
2022-11-28T09:25:04.238Z,100507.66
2022-11-28T09:29:20.383Z,100508.94
2022-11-28T09:33:36.891Z,100502.00
2022-11-28T09:37:53.194Z,100486.28
2022-11-28T09:42:31.030Z,100486.25
2022-11-28T09:46:49.420Z,100487.81
2022-11-28T09:51:42.877Z,100475.59
2022-11-28T09:56:15.953Z,100468.47
2022-11-28T10:00:38.978Z,100466.06
2022-11-28T10:05:24.516Z,100457.72
2022-11-28T10:10:13.269Z,100445.47
2022-11-28T10:15:20.288Z,100457.75
2022-11-28T10:19:55.147Z,100445.69
2022-11-28T10:24:39.793Z,100444.19
2022-11-28T10:28:58.021Z,100429.31
2022-11-28T10:33:23.137Z,100424.66
2022-11-28T10:37:39.960Z,100425.47
2022-11-28T10:42:14.049Z,100419.72
2022-11-28T10:46:37.305Z,100414.38
2022-11-28T10:51:11.810Z,100426.47
2022-11-28T10:55:41.019Z,100418.78
2022-11-28T11:00:07.617Z,100414.72
2022-11-28T11:04:27.097Z,100408.91
2022-11-28T11:08:45.746Z,100404.69
2022-11-28T11:13:11.368Z,100405.09
2022-11-28T11:17:36.453Z,100405.69
2022-11-28T11:22:21.064Z,100405.50
2022-11-28T11:26:49.866Z,100401.62
2022-11-28T11:31:15.007Z,100406.59
2022-11-28T11:35:37.199Z,100407.56
2022-11-28T11:39:54.245Z,100401.69
2022-11-28T11:44:19.531Z,100402.38
2022-11-28T11:48:38.202Z,100406.16
2022-11-28T11:53:04.902Z,100396.03
2022-11-28T11:57:32.975Z,100401.59
2022-11-28T12:01:54.573Z,100389.87
2022-11-28T12:06:32.955Z,100390.50
2022-11-28T12:11:08.047Z,100391.81
2022-11-28T12:15:35.271Z,100388.12
2022-11-28T12:20:21.650Z,100380.34
2022-11-28T12:24:54.752Z,100382.13
2022-11-28T12:29:32.041Z,100387.91
2022-11-28T12:34:03.703Z,100376.47
2022-11-28T12:38:32.226Z,100379.28
2022-11-28T12:42:57.427Z,100372.94
2022-11-28T12:47:28.022Z,100387.34
2022-11-28T12:52:01.210Z,100382.09
2022-11-28T12:56:44.004Z,100375.75
2022-11-28T13:01:34.387Z,100379.16
2022-11-28T13:06:16.754Z,100364.69
2022-11-28T13:10:42.054Z,100364.41
2022-11-28T13:15:08.829Z,100363.13
2022-11-28T13:19:57.445Z,100359.13
2022-11-28T13:24:40.345Z,100364.56
2022-11-28T13:29:27.401Z,100360.53
2022-11-28T13:33:57.068Z,100358.87
2022-11-28T13:38:58.743Z,100353.91
2022-11-28T13:43:39.667Z,100357.25
2022-11-28T13:47:55.903Z,100352.28
2022-11-28T13:52:21.964Z,100344.72
2022-11-28T13:56:38.066Z,100339.56
2022-11-28T14:01:07.980Z,100335.03
2022-11-28T14:05:37.805Z,100336.97
2022-11-28T14:10:02.867Z,100333.78
2022-11-28T14:14:34.202Z,100323.75
2022-11-28T14:18:57.498Z,100326.59
2022-11-28T14:23:25.477Z,100328.53
2022-11-28T14:27:48.904Z,100332.00
2022-11-28T14:32:28.907Z,100322.09
2022-11-28T14:36:44.019Z,100321.94
2022-11-28T14:41:11.997Z,100306.38
2022-11-28T14:45:41.075Z,100310.56
2022-11-28T14:50:17.827Z,100317.78
2022-11-28T14:54:43.326Z,100326.81
2022-11-28T14:59:03.630Z,100337.69
2022-11-28T15:03:40.890Z,100337.84
2022-11-28T15:08:18.726Z,100341.25
2022-11-28T15:12:44.401Z,100333.72
2022-11-28T15:17:06.444Z,100340.00
2022-11-28T15:21:23.335Z,100335.44
2022-11-28T15:25:40.150Z,100337.69
2022-11-28T15:30:01.131Z,100338.91
2022-11-28T15:34:28.343Z,100346.41
2022-11-28T15:38:46.539Z,100347.94
2022-11-28T15:43:08.096Z,100335.41
2022-11-28T15:47:29.096Z,100335.56
2022-11-28T15:51:51.715Z,100335.28
2022-11-28T15:56:13.898Z,100341.75
2022-11-28T16:00:30.240Z,100343.06
2022-11-28T16:04:46.872Z,100340.12
2022-11-28T16:09:19.363Z,100342.13
2022-11-28T16:13:37.502Z,100330.53
2022-11-28T16:17:55.797Z,100340.00
2022-11-28T16:22:17.910Z,100348.84
2022-11-28T16:26:42.683Z,100347.22
2022-11-28T16:30:59.307Z,100348.09
2022-11-28T16:35:40.633Z,100346.59
2022-11-28T16:40:19.670Z,100342.84
2022-11-28T16:44:37.108Z,100346.28
2022-11-28T16:49:00.935Z,100345.84
2022-11-28T16:53:36.856Z,100345.84
2022-11-28T16:58:07.561Z,100347.66
2022-11-28T17:02:25.623Z,100344.63
2022-11-28T17:06:42.880Z,100356.75
2022-11-28T17:10:59.434Z,100358.31
2022-11-28T17:15:19.050Z,100359.91
2022-11-28T17:19:35.957Z,100354.94
2022-11-28T17:23:53.050Z,100368.47
2022-11-28T17:28:14.832Z,100368.69
2022-11-28T17:32:35.341Z,100357.59
2022-11-28T17:36:51.992Z,100356.13
2022-11-28T17:41:13.714Z,100361.19
2022-11-28T17:45:31.976Z,100356.75
2022-11-28T17:49:48.708Z,100369.75
2022-11-28T17:54:05.417Z,100362.06
2022-11-28T17:58:24.032Z,100373.06
2022-11-28T18:02:40.214Z,100374.62
2022-11-28T18:06:56.579Z,100368.69
2022-11-28T18:11:13.792Z,100356.66
2022-11-28T18:15:30.531Z,100362.91
2022-11-28T18:19:50.217Z,100366.34
2022-11-28T18:24:08.988Z,100359.09
2022-11-28T18:28:25.449Z,100363.19
2022-11-28T18:32:41.890Z,100359.31
2022-11-28T18:37:00.964Z,100366.59
2022-11-28T18:41:18.433Z,100366.34
2022-11-28T18:45:35.385Z,100372.66
2022-11-28T18:49:51.749Z,100371.75
2022-11-28T18:54:07.977Z,100376.13
2022-11-28T18:58:24.191Z,100378.31
2022-11-28T19:02:40.991Z,100372.28
2022-11-28T19:06:57.272Z,100375.34
2022-11-28T19:11:15.710Z,100377.31
2022-11-28T19:15:32.122Z,100376.88
2022-11-28T19:19:48.573Z,100368.22
2022-11-28T19:24:05.698Z,100370.91
2022-11-28T19:28:21.885Z,100373.91
2022-11-28T19:32:38.148Z,100367.41
2022-11-28T19:36:54.483Z,100369.28
2022-11-28T19:41:15.512Z,100371.16
2022-11-28T19:45:31.704Z,100371.88
2022-11-28T19:49:48.006Z,100381.50
2022-11-28T19:54:04.385Z,100377.56
2022-11-28T19:58:20.688Z,100391.31
2022-11-28T20:02:36.861Z,100397.09
2022-11-28T20:06:53.708Z,100382.00
2022-11-28T20:11:18.146Z,100388.09
2022-11-28T20:15:37.760Z,100395.31
2022-11-28T20:19:54.005Z,100384.38
2022-11-28T20:24:10.612Z,100394.38
2022-11-28T20:28:26.775Z,100390.09
2022-11-28T20:32:42.951Z,100389.25
2022-11-28T20:36:59.668Z,100392.31
2022-11-28T20:41:17.781Z,100388.03
2022-11-28T20:45:33.954Z,100384.28
2022-11-28T20:49:50.170Z,100390.72
2022-11-28T20:54:06.872Z,100392.03
2022-11-28T20:58:22.987Z,100400.22
2022-11-28T21:02:39.178Z,100398.69
2022-11-28T21:06:55.383Z,100402.38
2022-11-28T21:11:36.635Z,100403.09
2022-11-28T21:15:53.900Z,100406.41
2022-11-28T21:20:10.550Z,100403.75
2022-11-28T21:24:26.743Z,100395.47
2022-11-28T21:28:44.616Z,100402.97
2022-11-28T21:33:00.889Z,100405.44
2022-11-28T21:37:17.031Z,100402.72
2022-11-28T21:41:33.732Z,100396.03
2022-11-28T21:45:50.568Z,100398.16
2022-11-28T21:50:07.339Z,100406.56
2022-11-28T21:54:23.567Z,100406.66
2022-11-28T21:58:40.093Z,100406.56
2022-11-28T22:03:02.728Z,100399.09
2022-11-28T22:07:19.663Z,100410.22
2022-11-28T22:11:35.987Z,100399.50
2022-11-28T22:15:52.223Z,100396.69
2022-11-28T22:20:09.436Z,100401.78
2022-11-28T22:24:25.743Z,100402.72
2022-11-28T22:28:41.974Z,100393.37
2022-11-28T22:32:58.205Z,100389.28
2022-11-28T22:37:14.368Z,100389.03
2022-11-28T22:41:30.789Z,100388.12
2022-11-28T22:45:55.019Z,100403.91
2022-11-28T22:50:11.519Z,100399.25
2022-11-28T22:54:27.755Z,100391.41
2022-11-28T22:58:45.218Z,100386.03
2022-11-28T23:03:01.556Z,100384.72
2022-11-28T23:07:18.055Z,100376.19
2022-11-28T23:11:35.898Z,100387.75
2022-11-28T23:15:52.987Z,100386.16
2022-11-28T23:20:09.934Z,100379.22
2022-11-28T23:24:26.226Z,100379.87
2022-11-28T23:28:42.735Z,100376.41
2022-11-28T23:32:58.995Z,100373.34
2022-11-28T23:37:15.144Z,100369.78
2022-11-28T23:41:31.834Z,100367.47
2022-11-28T23:45:48.094Z,100368.59
2022-11-28T23:50:04.813Z,100362.28
2022-11-28T23:54:21.011Z,100349.25
2022-11-28T23:58:37.635Z,100367.03
